Time;durP1;ratioP1;P1;durP2;ratioP2;P2;SDS_P1;SDS_P2;PMS_P1;PMS_P2;Temp;Humidity;BMP_temperature;BMP_pressure;BME280_temperature;BME280_humidity;BME280_pressure;Samples;Min_cycle;Max_cycle;Signal;HPM_P1;HPM_P2
2022/09/18 00:00:46;;;;;;;12.00;6.95;;;;;;;17.36;97.22;98749.41;5011193;28;20505;-79
2022/09/18 00:03:12;;;;;;;13.80;6.65;;;;;;;17.91;97.72;98872.88;5011265;28;20045;-79
2022/09/18 00:05:37;;;;;;;12.98;6.60;;;;;;;17.33;96.98;98754.03;5011038;28;20053;-79
2022/09/18 00:08:03;;;;;;;12.27;7.10;;;;;;;17.66;98.39;98855.63;5011396;28;20096;-79
2022/09/18 00:10:30;;;;;;;11.43;6.93;;;;;;;17.95;98.06;98890.34;5010976;28;20041;-80
2022/09/18 00:12:55;;;;;;;13.75;8.52;;;;;;;17.25;97.09;98742.03;4993061;28;20046;-79
2022/09/18 00:15:21;;;;;;;12.13;6.30;;;;;;;17.43;96.40;98749.94;5010509;28;20386;-79
2022/09/18 00:17:46;;;;;;;13.85;8.60;;;;;;;18.18;95.96;98875.81;4990145;28;20046;-77
2022/09/18 00:20:12;;;;;;;12.88;7.80;;;;;;;18.04;96.91;98863.28;4990776;28;20762;-79
2022/09/18 00:22:39;;;;;;;11.30;7.68;;;;;;;17.83;96.36;98816.72;4991107;28;20425;-79
2022/09/18 00:25:07;;;;;;;11.05;6.85;;;;;;;18.17;96.69;98889.16;5006828;28;20052;-79
2022/09/18 00:27:33;;;;;;;12.90;7.70;;;;;;;17.39;96.90;98761.63;5010868;28;20104;-79
2022/09/18 00:29:59;;;;;;;12.75;7.43;;;;;;;17.90;97.43;98847.28;4992629;28;20052;-80
2022/09/18 00:32:24;;;;;;;11.70;6.82;;;;;;;18.09;97.05;98886.94;5010479;28;20050;-80
2022/09/18 00:34:50;;;;;;;13.10;7.93;;;;;;;17.55;97.91;98817.34;5010230;28;20413;-79
2022/09/18 00:37:16;;;;;;;10.63;7.55;;;;;;;18.00;97.81;98880.31;5010287;28;20072;-79
2022/09/18 00:39:41;;;;;;;12.52;8.50;;;;;;;17.06;98.28;98743.97;4993174;28;20057;-79
2022/09/18 00:42:11;;;;;;;15.88;8.40;;;;;;;17.95;97.59;98877.06;5010192;28;20049;-76
2022/09/18 00:44:39;;;;;;;17.45;7.78;;;;;;;18.05;97.48;98894.22;5010074;28;20128;-79
2022/09/18 00:47:11;;;;;;;13.15;9.45;;;;;;;17.99;97.57;98881.28;4988363;28;20498;-79
2022/09/18 00:49:57;;;;;;;13.85;8.52;;;;;;;18.10;97.18;98870.94;4990384;28;20510;-78
2022/09/18 00:52:27;;;;;;;14.98;8.40;;;;;;;17.89;96.93;98837.63;4990423;28;20757;-79
2022/09/18 00:55:03;;;;;;;15.82;8.80;;;;;;;17.29;96.82;98740.91;5000753;28;20043;-79
2022/09/18 00:57:34;;;;;;;20.30;8.40;;;;;;;17.35;97.43;98784.81;5010146;28;20037;-79
2022/09/18 01:00:03;;;;;;;11.77;7.82;;;;;;;18.00;98.50;98882.13;5009607;28;20084;-80
2022/09/18 01:02:28;;;;;;;9.07;6.07;;;;;;;18.09;98.34;98889.59;5009894;28;20050;-78
2022/09/18 01:04:55;;;;;;;10.90;7.15;;;;;;;18.00;98.62;98877.66;4992113;28;20112;-80
2022/09/18 01:07:56;;;;;;;10.52;6.03;;;;;;;17.39;98.40;98761.63;4991900;28;20497;-79
2022/09/18 01:11:10;;;;;;;15.05;4.15;;;;;;;18.35;97.92;98899.63;5008853;28;20042;-77
2022/09/18 01:13:56;;;;;;;6.88;2.95;;;;;;;17.60;97.96;98759.59;5002053;28;20084;-80
2022/09/18 01:16:32;;;;;;;6.80;2.78;;;;;;;18.51;97.48;98902.25;5009007;28;20041;-78
2022/09/18 01:19:52;;;;;;;8.27;2.17;;;;;;;18.64;95.91;98898.91;4988320;28;20035;-80
2022/09/18 01:22:46;;;;;;;8.68;2.20;;;;;;;18.00;94.83;98792.75;4966269;28;20039;-79
2022/09/18 01:25:11;;;;;;;;;;;;;;;18.70;94.85;98914.47;5008881;28;20037;-79
2022/09/18 01:28:08;;;;;;;8.93;2.65;;;;;;;18.71;94.12;98921.53;5009810;28;19913;-79
2022/09/18 01:30:39;;;;;;;7.45;2.42;;;;;;;18.02;94.31;98793.50;5009733;28;20120;-79
2022/09/18 01:33:36;;;;;;;5.85;3.08;;;;;;;18.71;94.19;98911.75;5009189;28;20184;-79
2022/09/18 01:36:07;;;;;;;5.25;2.10;;;;;;;17.84;93.96;98776.84;4991381;28;20165;-79
2022/09/18 01:38:47;;;;;;;6.10;2.35;;;;;;;18.09;94.14;98813.47;5008846;28;20116;-80
2022/09/18 01:41:26;;;;;;;7.15;3.15;;;;;;;18.40;93.67;98888.72;5008487;28;20050;-80
2022/09/18 01:44:10;;;;;;;5.82;2.38;;;;;;;18.63;94.28;98945.84;5009092;28;20042;-80
2022/09/18 01:46:46;;;;;;;7.60;3.22;;;;;;;17.94;94.19;98814.34;5015271;28;20060;-79
2022/09/18 01:49:23;;;;;;;9.63;4.35;;;;;;;18.05;94.18;98848.22;5009089;28;20056;-79
2022/09/18 01:51:56;;;;;;;7.43;3.88;;;;;;;18.67;94.82;98983.75;5009104;28;20510;-77
2022/09/18 01:54:29;;;;;;;5.55;2.90;;;;;;;18.45;95.46;98970.78;4997653;28;20382;-81
2022/09/18 01:57:06;;;;;;;9.38;4.25;;;;;;;17.39;95.16;98765.13;5028537;28;20068;-79
2022/09/18 01:59:43;;;;;;;13.10;4.15;;;;;;;18.55;95.24;98972.88;5028127;28;20037;-80
2022/09/18 02:02:17;;;;;;;6.05;3.22;;;;;;;17.65;95.15;98822.09;5028273;28;20072;-79
2022/09/18 02:04:46;;;;;;;9.60;5.03;;;;;;;18.60;95.06;99000.97;5028256;28;20061;-81
2022/09/18 02:07:46;;;;;;;5.80;3.05;;;;;;;17.13;93.42;98750.63;5027886;28;20038;-79
2022/09/18 02:10:12;;;;;;;7.43;3.85;;;;;;;18.53;92.99;99005.78;5027911;28;20037;-77
2022/09/18 02:12:41;;;;;;;9.73;3.42;;;;;;;18.40;93.21;98992.28;5028604;28;20033;-80
2022/09/18 02:15:13;;;;;;;11.20;3.47;;;;;;;17.79;93.19;98892.94;5010430;28;20053;-79
2022/09/18 02:17:44;;;;;;;6.45;4.03;;;;;;;18.43;92.35;98992.16;5015282;28;20068;-78
2022/09/18 02:20:18;;;;;;;8.20;3.17;;;;;;;18.47;91.92;99016.72;5008231;28;20042;-79
2022/09/18 02:22:46;;;;;;;10.57;3.47;;;;;;;18.16;90.88;98972.41;5008399;28;20048;-79
2022/09/18 02:25:16;;;;;;;9.25;3.33;;;;;;;18.37;89.88;98999.59;5029332;28;20049;-79
2022/09/18 02:27:42;;;;;;;10.10;2.85;;;;;;;17.63;88.72;98892.03;5010761;28;20513;-80
2022/09/18 02:30:08;;;;;;;4.35;2.75;;;;;;;17.61;85.48;98929.28;5027551;28;20153;-80
2022/09/18 02:32:36;;;;;;;8.82;1.30;;;;;;;18.02;82.15;99040.38;5027791;28;20486;-80
2022/09/18 02:35:03;;;;;;;4.25;1.52;;;;;;;17.38;81.12;98925.19;5027709;28;20052;-78
2022/09/18 02:37:44;;;;;;;2.60;1.30;;;;;;;18.12;80.64;99025.69;5027360;28;20046;-80
2022/09/18 02:40:28;;;;;;;1.95;0.98;;;;;;;17.99;79.58;99050.31;5027503;28;20061;-78
2022/09/18 02:43:06;;;;;;;1.05;0.57;;;;;;;17.96;77.77;99064.59;5027385;28;20040;-78
2022/09/18 02:45:52;;;;;;;1.45;0.73;;;;;;;17.85;75.77;99057.16;5010035;28;20482;-78
2022/09/18 02:48:36;;;;;;;4.72;0.68;;;;;;;17.73;75.42;99071.91;4995104;28;20066;-79
2022/09/18 02:51:26;;;;;;;1.67;0.60;;;;;;;17.71;75.46;99064.97;4995490;28;20097;-77
2022/09/18 02:54:10;;;;;;;9.13;0.95;;;;;;;16.79;74.71;98939.66;4990825;28;20513;-80
2022/09/18 02:56:41;;;;;;;6.82;0.60;;;;;;;17.62;73.73;99071.56;5007492;28;20153;-79
2022/09/18 02:59:30;;;;;;;0.65;0.30;;;;;;;16.71;74.23;98955.03;5007535;28;20089;-79
2022/09/18 03:01:57;;;;;;;4.10;0.85;;;;;;;16.30;74.67;98929.63;4997386;28;20056;-79
2022/09/18 03:04:25;;;;;;;4.68;1.10;;;;;;;17.09;74.93;99085.69;5006845;28;20037;-80
2022/09/18 03:06:52;;;;;;;1.38;0.47;;;;;;;16.95;75.01;99036.03;5007010;28;20112;-77
2022/09/18 03:09:17;;;;;;;1.25;0.77;;;;;;;16.12;75.74;98960.44;4990281;28;20465;-79
2022/09/18 03:11:43;;;;;;;1.35;0.55;;;;;;;16.48;77.38;99060.25;5007432;28;20038;-80
2022/09/18 03:14:09;;;;;;;11.88;0.52;;;;;;;16.39;78.58;99093.31;5007562;28;20065;-80
2022/09/18 03:16:35;;;;;;;5.93;1.45;;;;;;;16.06;78.87;99037.47;4995552;28;20054;-79
2022/09/18 03:19:01;;;;;;;4.32;0.52;;;;;;;15.48;79.92;98989.75;4985397;28;20045;-79
2022/09/18 03:21:26;;;;;;;0.73;0.20;;;;;;;15.83;80.03;99036.69;5001065;28;20132;-78
2022/09/18 03:23:52;;;;;;;2.72;1.08;;;;;;;16.19;80.03;99091.56;5018834;28;20051;-81
2022/09/18 03:26:18;;;;;;;0.65;0.35;;;;;;;16.21;80.08;99110.03;5007563;28;20049;-80
2022/09/18 03:28:43;;;;;;;2.58;0.35;;;;;;;15.74;80.26;99081.19;5007618;28;20482;-80
2022/09/18 03:31:10;;;;;;;3.08;0.63;;;;;;;15.59;78.99;99123.19;5007349;28;20379;-80
2022/09/18 03:33:36;;;;;;;4.47;0.35;;;;;;;15.54;78.07;99121.66;4989674;28;20045;-78
2022/09/18 03:36:02;;;;;;;4.93;1.83;;;;;;;14.88;78.58;99039.75;5006804;28;20050;-79
2022/09/18 03:38:28;;;;;;;2.83;0.40;;;;;;;14.90;77.69;99028.22;5007165;28;20137;-80
2022/09/18 03:40:53;;;;;;;0.40;0.15;;;;;;;15.52;77.75;99164.03;5006843;28;20046;-81
2022/09/18 03:43:19;;;;;;;1.17;0.47;;;;;;;14.50;77.88;99044.72;5007575;28;20042;-80
2022/09/18 03:45:44;;;;;;;1.08;0.55;;;;;;;14.53;77.18;99044.59;5007719;28;20030;-80
2022/09/18 03:48:10;;;;;;;2.47;0.22;;;;;;;14.46;77.50;99080.91;5024461;28;20065;-80
2022/09/18 03:50:35;;;;;;;13.23;0.30;;;;;;;14.97;76.91;99195.25;5026529;28;20053;-78
2022/09/18 03:53:01;;;;;;;4.57;0.43;;;;;;;14.13;76.92;99065.41;5009005;28;20565;-79
2022/09/18 03:55:26;;;;;;;2.80;0.63;;;;;;;14.89;76.45;99216.66;5008264;28;20046;-79
2022/09/18 03:57:52;;;;;;;7.00;1.05;;;;;;;14.77;76.25;99211.81;5026586;28;20041;-79
2022/09/18 04:00:18;;;;;;;4.65;0.28;;;;;;;13.94;75.99;99075.75;5027300;28;20041;-78
2022/09/18 04:02:43;;;;;;;13.80;0.50;;;;;;;13.90;75.76;99060.94;5026652;28;20049;-80
2022/09/18 04:05:10;;;;;;;2.13;0.43;;;;;;;13.73;75.64;99089.69;5026587;28;20092;-79
2022/09/18 04:07:35;;;;;;;0.30;0.30;;;;;;;13.65;75.17;99108.41;5026832;28;20041;-79
2022/09/18 04:10:01;;;;;;;3.83;0.30;;;;;;;14.49;75.70;99236.56;5026419;28;20449;-80
2022/09/18 04:12:27;;;;;;;15.95;1.63;;;;;;;13.76;74.99;99120.38;5026554;28;20492;-80
2022/09/18 04:14:55;;;;;;;11.50;0.75;;;;;;;14.29;75.38;99290.00;5026491;28;20053;-79
2022/09/18 04:17:21;;;;;;;2.55;0.75;;;;;;;13.54;75.33;99179.06;5016707;28;20105;-81
2022/09/18 04:19:47;;;;;;;1.40;0.45;;;;;;;13.57;75.32;99199.19;5006317;28;20061;-79
2022/09/18 04:22:12;;;;;;;2.08;0.65;;;;;;;14.22;74.74;99288.47;5018518;28;20061;-79
2022/09/18 04:24:38;;;;;;;3.38;0.60;;;;;;;13.49;74.28;99181.00;5026408;28;20034;-79
2022/09/18 04:27:05;;;;;;;3.42;0.47;;;;;;;14.02;74.88;99293.53;5026109;28;20056;-80
2022/09/18 04:29:30;;;;;;;4.28;0.77;;;;;;;13.95;75.31;99300.78;5008147;28;20109;-77
2022/09/18 04:31:56;;;;;;;4.22;0.43;;;;;;;13.93;75.62;99316.66;5026225;28;20049;-79
2022/09/18 04:34:21;;;;;;;7.35;0.55;;;;;;;14.08;74.79;99327.66;5026003;28;20065;-78
2022/09/18 04:36:47;;;;;;;8.60;0.60;;;;;;;13.09;74.93;99192.72;5026241;28;20496;-77
2022/09/18 04:39:12;;;;;;;3.03;1.00;;;;;;;13.85;75.49;99338.91;5026540;28;20139;-78
2022/09/18 04:41:38;;;;;;;7.35;0.73;;;;;;;13.05;75.26;99228.81;5025973;28;20049;-79
2022/09/18 04:44:03;;;;;;;2.40;0.82;;;;;;;13.03;74.38;99213.97;5025949;28;20089;-78
2022/09/18 04:46:35;;;;;;;4.80;0.43;;;;;;;13.87;74.74;99340.59;5026138;28;20058;-78
2022/09/18 04:49:07;;;;;;;5.45;0.30;;;;;;;13.37;73.98;99234.94;5010086;28;20046;-79
2022/09/18 04:51:33;;;;;;;3.33;0.60;;;;;;;13.12;74.20;99220.75;5010691;28;20052;-80
2022/09/18 04:53:58;;;;;;;7.97;1.23;;;;;;;12.60;74.44;99126.59;5012618;28;20057;-79
2022/09/18 04:56:24;;;;;;;6.85;0.75;;;;;;;13.80;74.33;99362.78;5029452;28;20060;-78
2022/09/18 04:58:50;;;;;;;2.58;0.60;;;;;;;13.48;73.82;99277.63;5029406;28;20042;-76
2022/09/18 05:01:15;;;;;;;1.23;0.50;;;;;;;12.87;73.40;99221.44;5011492;28;20085;-78
2022/09/18 05:03:41;;;;;;;9.30;1.02;;;;;;;13.79;73.23;99378.63;5011929;28;20028;-82
2022/09/18 05:06:07;;;;;;;2.42;0.43;;;;;;;12.81;72.58;99235.66;5029591;28;20077;-79
2022/09/18 05:08:33;;;;;;;6.60;1.27;;;;;;;12.97;72.01;99251.00;5029436;28;20048;-79
2022/09/18 05:10:59;;;;;;;8.02;0.88;;;;;;;13.87;72.24;99381.91;5029549;28;20045;-78
2022/09/18 05:13:25;;;;;;;4.05;0.80;;;;;;;13.87;72.35;99408.28;5029239;28;20048;-79
2022/09/18 05:15:55;;;;;;;1.33;0.68;;;;;;;13.94;71.36;99405.41;5029505;28;20021;-79
2022/09/18 05:18:20;;;;;;;6.40;0.80;;;;;;;13.94;71.28;99389.59;5022898;28;20048;-82
2022/09/18 05:20:53;;;;;;;6.53;0.82;;;;;;;13.51;71.20;99364.50;5029653;28;20033;-79
2022/09/18 05:23:19;;;;;;;8.82;0.82;;;;;;;13.44;70.13;99323.44;5029479;28;20049;-80
2022/09/18 05:25:45;;;;;;;4.25;0.70;;;;;;;13.88;70.29;99375.72;5029058;28;20532;-81
2022/09/18 05:28:12;;;;;;;2.40;0.90;;;;;;;13.52;69.87;99341.66;5029598;28;20378;-80
2022/09/18 05:30:37;;;;;;;1.83;0.82;;;;;;;13.85;69.79;99416.25;5029460;28;20075;-79
2022/09/18 05:33:06;;;;;;;1.05;0.50;;;;;;;13.94;69.84;99418.59;5028862;28;20436;-79
2022/09/18 05:35:33;;;;;;;5.40;0.98;;;;;;;13.24;69.25;99308.16;5029133;28;20087;-78
2022/09/18 05:38:00;;;;;;;4.22;0.57;;;;;;;13.77;69.38;99364.66;5029078;28;20816;-78
2022/09/18 05:40:30;;;;;;;5.35;0.52;;;;;;;13.31;67.61;99293.06;5028896;28;20041;-77
2022/09/18 05:42:56;;;;;;;9.55;1.23;;;;;;;13.92;68.34;99430.13;5028786;28;20041;-80
2022/09/18 05:45:22;;;;;;;3.22;0.60;;;;;;;13.79;68.26;99415.53;5011864;28;20029;-79
2022/09/18 05:48:01;;;;;;;8.05;0.88;;;;;;;13.04;68.23;99314.00;5007916;28;20144;-82
2022/09/18 05:50:28;;;;;;;4.55;0.70;;;;;;;13.15;69.05;99373.41;4990118;28;20050;-81
2022/09/18 05:53:02;;;;;;;2.92;0.60;;;;;;;13.49;68.99;99445.38;4993488;28;20042;-77
2022/09/18 05:55:28;;;;;;;3.50;1.20;;;;;;;13.15;68.69;99395.34;5004453;28;20053;-76
2022/09/18 05:57:55;;;;;;;3.70;1.13;;;;;;;13.48;68.76;99459.44;5009077;28;20155;-77
2022/09/18 06:00:23;;;;;;;2.08;0.77;;;;;;;13.57;68.65;99468.03;5009099;28;20034;-78
2022/09/18 06:03:10;;;;;;;2.90;0.57;;;;;;;12.80;67.96;99304.97;5008516;28;20077;-78
2022/09/18 06:05:37;;;;;;;5.57;1.08;;;;;;;12.82;67.93;99329.50;5008613;28;20046;-80
2022/09/18 06:08:08;;;;;;;3.60;0.85;;;;;;;12.77;68.07;99335.81;5008139;28;20486;-81
2022/09/18 06:10:36;;;;;;;21.23;1.33;;;;;;;13.55;67.69;99486.50;5008635;28;20132;-78
2022/09/18 06:13:07;;;;;;;3.70;1.20;;;;;;;13.53;68.20;99454.06;5008435;28;20438;-81
2022/09/18 06:15:34;;;;;;;4.25;0.90;;;;;;;13.50;66.98;99415.47;5008449;28;20060;-81
2022/09/18 06:18:01;;;;;;;4.38;1.52;;;;;;;13.53;67.14;99419.78;4994754;28;20082;-79
2022/09/18 06:20:27;;;;;;;8.02;1.17;;;;;;;13.20;67.33;99310.91;4988829;28;20038;-80
2022/09/18 06:22:52;;;;;;;4.63;0.85;;;;;;;13.52;66.79;99395.22;4988716;28;20513;-80
2022/09/18 06:25:20;;;;;;;2.45;0.98;;;;;;;13.23;66.80;99322.25;5004851;28;20045;-81
2022/09/18 06:27:49;;;;;;;9.95;1.38;;;;;;;14.02;66.96;99465.84;4991482;28;20783;-78
2022/09/18 06:30:15;;;;;;;10.10;0.93;;;;;;;13.06;66.47;99313.94;4990825;28;20037;-79
2022/09/18 06:32:40;;;;;;;13.05;1.60;;;;;;;14.00;66.43;99482.63;5008013;28;20061;-78
2022/09/18 06:35:06;;;;;;;10.77;1.23;;;;;;;13.18;66.25;99339.06;5008033;28;20053;-77
2022/09/18 06:37:32;;;;;;;13.82;1.42;;;;;;;13.36;66.19;99359.66;4989154;28;20053;-83
2022/09/18 06:39:57;;;;;;;7.93;0.95;;;;;;;14.13;66.13;99479.59;5007649;28;20033;-79
2022/09/18 06:42:22;;;;;;;7.25;0.95;;;;;;;13.46;65.54;99347.97;5008233;28;20045;-78
2022/09/18 06:44:48;;;;;;;6.95;0.75;;;;;;;14.44;65.89;99512.97;5007904;28;20042;-81
2022/09/18 06:47:13;;;;;;;2.38;0.73;;;;;;;13.91;65.00;99421.34;5007585;28;20053;-80
2022/09/18 06:49:39;;;;;;;2.33;0.70;;;;;;;14.28;64.96;99480.94;5007828;28;20050;-80
2022/09/18 06:52:04;;;;;;;1.60;0.63;;;;;;;14.52;64.13;99500.41;5007973;28;20029;-79
2022/09/18 06:54:30;;;;;;;3.92;0.70;;;;;;;14.63;64.60;99486.03;5027561;28;20032;-79
2022/09/18 06:56:55;;;;;;;1.55;0.57;;;;;;;14.67;63.66;99522.00;5027086;28;20046;-79
2022/09/18 06:59:21;;;;;;;5.80;0.88;;;;;;;14.04;63.69;99371.72;5026947;28;20053;-79
2022/09/18 07:01:47;;;;;;;14.35;0.80;;;;;;;14.64;63.21;99475.44;5027123;28;20050;-78
2022/09/18 07:04:13;;;;;;;4.40;2.22;;;;;;;14.20;63.21;99402.91;5027154;28;20038;-79
2022/09/18 07:06:38;;;;;;;13.55;1.45;;;;;;;14.47;62.80;99428.44;5022058;28;20350;-81
2022/09/18 07:09:04;;;;;;;3.72;0.88;;;;;;;14.89;62.48;99494.00;5046153;28;20045;-80
2022/09/18 07:11:30;;;;;;;3.63;0.77;;;;;;;14.49;61.49;99416.06;5030190;28;20042;-81
2022/09/18 07:13:55;;;;;;;0.40;0.30;;;;;;;14.96;61.83;99490.25;5027023;28;20053;-81
2022/09/18 07:16:20;;;;;;;11.45;2.15;;;;;;;15.10;61.29;99528.53;5027022;28;20041;-79
2022/09/18 07:18:49;;;;;;;9.65;1.40;;;;;;;15.20;60.84;99520.28;5005335;28;20445;-78
2022/09/18 07:21:15;;;;;;;7.40;0.70;;;;;;;14.57;61.08;99390.28;4990001;28;20442;-80
2022/09/18 07:23:40;;;;;;;10.50;1.10;;;;;;;15.52;60.67;99506.88;5012990;28;20042;-78
2022/09/18 07:26:06;;;;;;;5.95;0.82;;;;;;;15.35;60.64;99479.22;5026586;28;20497;-78
2022/09/18 07:28:37;;;;;;;5.30;0.65;;;;;;;14.94;60.04;99393.47;5026642;28;20449;-78
2022/09/18 07:31:04;;;;;;;9.68;1.25;;;;;;;15.66;60.06;99493.16;5026575;28;20038;-80
2022/09/18 07:33:31;;;;;;;6.88;1.10;;;;;;;14.93;59.01;99367.97;5026884;28;20036;-79
2022/09/18 07:36:04;;;;;;;4.28;0.80;;;;;;;15.72;58.92;99470.03;5008551;28;20436;-80
2022/09/18 07:38:30;;;;;;;;;;;;;;;15.72;58.02;99504.44;5008940;28;20445;-80
2022/09/18 07:40:56;;;;;;;8.02;1.42;;;;;;;15.75;58.07;99495.50;5026543;28;19960;-79
2022/09/18 07:43:21;;;;;;;4.45;0.90;;;;;;;15.11;57.09;99382.31;5008520;28;20079;-79
2022/09/18 07:45:47;;;;;;;5.47;0.90;;;;;;;15.94;56.73;99516.88;5026589;28;20056;-79
2022/09/18 07:48:14;;;;;;;5.03;0.60;;;;;;;15.44;57.17;99405.81;4991567;28;20054;-80
2022/09/18 07:50:40;;;;;;;1.20;0.65;;;;;;;16.18;57.27;99515.97;4987095;28;20100;-82
2022/09/18 07:53:07;;;;;;;6.85;1.55;;;;;;;15.98;57.37;99506.13;4986753;28;20789;-80
2022/09/18 07:55:35;;;;;;;7.63;0.57;;;;;;;16.16;57.86;99493.13;5001904;28;20129;-81
2022/09/18 07:58:04;;;;;;;3.13;0.70;;;;;;;16.06;56.75;99489.09;4988547;28;20040;-80
2022/09/18 08:00:33;;;;;;;4.25;0.50;;;;;;;16.19;55.46;99507.09;5006323;28;20034;-81
2022/09/18 08:03:11;;;;;;;1.33;0.75;;;;;;;16.34;55.75;99512.72;5005922;28;20057;-81
2022/09/18 08:05:38;;;;;;;6.00;1.10;;;;;;;16.45;56.21;99518.50;5006173;28;20100;-79
2022/09/18 08:08:06;;;;;;;9.20;0.60;;;;;;;16.44;56.11;99524.72;5006881;28;20137;-80
2022/09/18 08:10:32;;;;;;;7.40;0.82;;;;;;;15.97;55.82;99422.38;5006484;28;20147;-80
2022/09/18 08:12:58;;;;;;;4.30;1.38;;;;;;;16.14;56.10;99442.91;4988953;28;20374;-80
2022/09/18 08:15:24;;;;;;;1.90;0.32;;;;;;;16.57;55.03;99535.69;5007103;28;20049;-79
2022/09/18 08:17:49;;;;;;;20.38;0.73;;;;;;;16.64;54.67;99511.53;4992440;28;20128;-80
2022/09/18 08:20:15;;;;;;;4.70;0.52;;;;;;;16.15;54.13;99430.53;4990233;28;20057;-79
2022/09/18 08:22:41;;;;;;;6.13;0.98;;;;;;;15.90;53.53;99402.38;4990498;28;20089;-80
2022/09/18 08:25:07;;;;;;;2.97;0.82;;;;;;;16.63;53.58;99503.69;4990226;28;20053;-79
2022/09/18 08:27:37;;;;;;;8.27;0.82;;;;;;;16.93;54.58;99532.53;5009038;28;20509;-80
2022/09/18 08:30:05;;;;;;;4.07;0.80;;;;;;;16.65;54.75;99486.78;5009557;28;20045;-79
2022/09/18 08:32:31;;;;;;;13.98;1.67;;;;;;;16.62;54.84;99504.59;5010050;28;20057;-80
2022/09/18 08:34:58;;;;;;;6.45;0.95;;;;;;;16.67;54.53;99500.00;5009750;28;20058;-81
2022/09/18 08:37:24;;;;;;;7.18;1.05;;;;;;;16.20;53.30;99400.31;5010012;28;20034;-78
2022/09/18 08:39:50;;;;;;;2.58;0.60;;;;;;;16.78;52.88;99496.91;5009644;28;20135;-80
2022/09/18 08:42:16;;;;;;;4.50;0.90;;;;;;;16.96;52.97;99543.88;5009569;28;20144;-81
2022/09/18 08:44:52;;;;;;;2.20;0.93;;;;;;;16.75;52.79;99492.59;5009622;28;20133;-80
2022/09/18 08:47:25;;;;;;;4.90;0.43;;;;;;;17.04;52.10;99514.41;5004654;28;20065;-81
2022/09/18 08:50:10;;;;;;;4.97;1.00;;;;;;;17.08;51.87;99527.47;4990477;28;20054;-82
2022/09/18 08:52:41;;;;;;;4.95;0.88;;;;;;;17.04;51.55;99502.06;4990538;28;20097;-78
2022/09/18 08:55:34;;;;;;;1.85;0.70;;;;;;;16.48;51.30;99400.97;5001520;28;20359;-79
2022/09/18 08:58:10;;;;;;;4.53;1.05;;;;;;;17.45;50.99;99552.47;5009634;28;20057;-80
2022/09/18 09:00:42;;;;;;;17.20;1.58;;;;;;;17.12;50.22;99455.81;5009322;28;20068;-79
2022/09/18 09:03:45;;;;;;;9.15;0.93;;;;;;;17.64;50.08;99549.91;5008736;28;20220;-81
2022/09/18 09:06:29;;;;;;;11.68;1.15;;;;;;;17.77;49.34;99546.69;5009466;28;20046;-79
2022/09/18 09:09:21;;;;;;;1.95;0.60;;;;;;;17.97;48.47;99545.88;4991546;28;20461;-80
2022/09/18 09:12:25;;;;;;;4.05;1.05;;;;;;;17.98;48.57;99539.63;5009202;28;20046;-79
2022/09/18 09:15:02;;;;;;;;;;;;;;;18.13;48.76;99552.22;5009476;28;20054;-77
2022/09/18 09:17:39;;;;;;;5.90;1.35;;;;;;;18.36;48.46;99569.78;5005914;28;19979;-80
2022/09/18 09:20:44;;;;;;;2.30;0.60;;;;;;;18.20;47.53;99579.38;5009217;28;20081;-79
2022/09/18 09:23:18;;;;;;;5.55;1.05;;;;;;;18.21;46.96;99565.16;4976205;28;20102;-80
2022/09/18 09:25:51;;;;;;;6.40;0.40;;;;;;;17.27;46.77;99412.72;5009421;28;20046;-78
2022/09/18 09:28:29;;;;;;;3.97;0.95;;;;;;;17.62;46.79;99477.47;5009155;28;20057;-80
2022/09/18 09:31:00;;;;;;;9.45;0.70;;;;;;;17.70;47.19;99466.53;5007781;28;20030;-79
2022/09/18 09:33:33;;;;;;;8.50;1.95;;;;;;;18.31;46.70;99532.81;5009535;28;20042;-78
2022/09/18 09:36:09;;;;;;;13.00;0.88;;;;;;;18.50;45.79;99577.97;5008452;28;20058;-78
2022/09/18 09:38:58;;;;;;;11.25;0.95;;;;;;;17.99;45.50;99469.69;5008211;28;20052;-78
2022/09/18 09:41:56;;;;;;;4.75;0.82;;;;;;;18.65;45.14;99589.69;4971803;28;20061;-80
2022/09/18 09:44:53;;;;;;;7.20;1.50;;;;;;;18.64;45.55;99600.41;4976676;28;20054;-79
2022/09/18 09:48:11;;;;;;;0.95;0.50;;;;;;;18.85;45.41;99591.44;4978447;28;20057;-78
2022/09/18 09:50:52;;;;;;;11.07;1.15;;;;;;;18.77;45.58;99601.56;4917737;28;20056;-79
2022/09/18 09:53:18;;;;;;;12.60;0.93;;;;;;;18.14;44.92;99492.88;4988817;28;20157;-80
2022/09/18 09:56:11;;;;;;;8.02;0.75;;;;;;;18.49;44.33;99573.56;5005294;28;20050;-81
2022/09/18 09:59:03;;;;;;;3.58;0.47;;;;;;;18.82;43.68;99638.56;5008001;28;20144;-82
2022/09/18 10:01:33;;;;;;;7.22;0.52;;;;;;;18.80;43.30;99617.38;5008440;28;20042;-81
2022/09/18 10:04:02;;;;;;;6.03;0.85;;;;;;;18.83;44.00;99621.69;5008344;28;20089;-79
2022/09/18 10:06:56;;;;;;;1.58;0.50;;;;;;;18.97;43.47;99627.22;5008917;28;20137;-79
2022/09/18 10:09:42;;;;;;;0.98;0.30;;;;;;;18.99;43.53;99617.38;5000018;28;20053;-79
2022/09/18 10:12:20;;;;;;;2.85;0.88;;;;;;;18.98;42.95;99615.63;5008198;28;20045;-80
2022/09/18 10:14:48;;;;;;;7.25;0.65;;;;;;;18.43;43.16;99512.78;5008128;28;20081;-78
2022/09/18 10:17:17;;;;;;;0.93;0.60;;;;;;;18.38;42.00;99529.84;5001224;28;20169;-83
2022/09/18 10:19:43;;;;;;;12.70;1.20;;;;;;;19.06;42.65;99616.16;4987392;28;20391;-79
2022/09/18 10:22:15;;;;;;;1.58;0.65;;;;;;;18.97;42.05;99571.38;4988489;28;20042;-81
2022/09/18 10:25:04;;;;;;;8.57;0.88;;;;;;;18.90;41.32;99536.25;5003165;28;20072;-78
2022/09/18 10:27:30;;;;;;;2.17;0.65;;;;;;;19.79;41.29;99642.78;5008031;28;20547;-79
2022/09/18 10:29:55;;;;;;;6.68;1.27;;;;;;;20.16;41.35;99667.53;5007899;28;20046;-78
2022/09/18 10:32:32;;;;;;;10.63;0.98;;;;;;;20.20;39.98;99621.97;5007707;28;20591;-78
2022/09/18 10:34:58;;;;;;;1.75;0.47;;;;;;;20.33;40.37;99592.03;4990124;28;20115;-79
2022/09/18 10:37:29;;;;;;;1.98;0.30;;;;;;;20.72;39.49;99661.03;5006347;28;20042;-79
2022/09/18 10:40:00;;;;;;;2.30;0.60;;;;;;;21.13;39.10;99649.91;5007922;28;20051;-79
2022/09/18 10:42:34;;;;;;;8.57;0.82;;;;;;;20.91;37.97;99654.69;5008568;28;20034;-79
2022/09/18 10:45:03;;;;;;;1.08;0.40;;;;;;;21.35;38.31;99652.19;5007591;28;20054;-81
2022/09/18 10:47:32;;;;;;;1.75;0.80;;;;;;;20.21;37.20;99530.47;5001399;28;20574;-79
2022/09/18 10:50:05;;;;;;;8.63;1.48;;;;;;;21.47;37.34;99669.38;4986409;28;20794;-81
2022/09/18 10:52:48;;;;;;;2.33;1.15;;;;;;;21.50;37.04;99666.53;4987666;28;20042;-80
2022/09/18 10:55:26;;;;;;;3.33;0.40;;;;;;;21.56;37.85;99676.00;5001154;28;20128;-81
2022/09/18 10:58:13;;;;;;;1.65;0.40;;;;;;;21.37;37.33;99660.97;4989378;28;20038;-80
2022/09/18 11:00:47;;;;;;;1.00;0.50;;;;;;;21.24;37.74;99646.63;5007524;28;20088;-79
2022/09/18 11:03:19;;;;;;;1.45;0.50;;;;;;;21.37;37.04;99660.97;4989461;28;20749;-80
2022/09/18 11:05:57;;;;;;;1.77;0.50;;;;;;;21.28;36.91;99632.16;5007282;28;20525;-80
2022/09/18 11:08:30;;;;;;;3.42;0.60;;;;;;;21.66;37.08;99683.41;5007040;28;20038;-80
2022/09/18 11:11:01;;;;;;;2.10;0.22;;;;;;;20.72;36.00;99557.06;5007323;28;20072;-80
2022/09/18 11:13:29;;;;;;;1.85;0.47;;;;;;;21.48;36.81;99673.75;5006554;28;20042;-81
2022/09/18 11:15:57;;;;;;;0.60;0.25;;;;;;;20.90;36.07;99610.31;5006755;28;20037;-80
2022/09/18 11:18:24;;;;;;;2.10;0.40;;;;;;;21.31;37.20;99676.50;4987582;28;20033;-79
2022/09/18 11:20:52;;;;;;;10.23;0.47;;;;;;;20.95;37.22;99675.78;5006768;28;20498;-78
2022/09/18 11:23:18;;;;;;;0.60;0.22;;;;;;;21.14;37.39;99717.44;5006761;28;20057;-79
2022/09/18 11:25:44;;;;;;;1.23;0.43;;;;;;;20.92;38.20;99667.94;5006421;28;20422;-80
2022/09/18 11:28:25;;;;;;;2.55;0.43;;;;;;;21.31;37.32;99703.19;5007002;28;20576;-80
2022/09/18 11:30:59;;;;;;;1.00;0.20;;;;;;;21.03;37.08;99699.38;5006833;28;20037;-79
2022/09/18 11:33:26;;;;;;;;;;;;;;;21.18;37.20;99706.53;4989745;28;20042;-81
2022/09/18 11:35:59;;;;;;;2.35;0.28;;;;;;;20.20;36.55;99576.69;5006800;28;19932;-82
2022/09/18 11:38:25;;;;;;;8.25;0.60;;;;;;;20.91;37.12;99676.91;4995826;28;20125;-84
2022/09/18 11:40:55;;;;;;;1.55;0.40;;;;;;;20.75;36.47;99702.69;5006228;28;20465;-79
2022/09/18 11:43:24;;;;;;;1.58;0.55;;;;;;;20.41;36.70;99625.31;5006942;28;20050;-81
2022/09/18 11:46:00;;;;;;;3.65;0.40;;;;;;;20.52;37.71;99704.72;4989505;28;20096;-81
2022/09/18 11:48:28;;;;;;;3.90;0.40;;;;;;;20.30;38.90;99706.75;4997248;28;20076;-81
2022/09/18 11:50:56;;;;;;;0.63;0.22;;;;;;;20.71;38.76;99707.31;4989267;28;20133;-80